Time;durP1;ratioP1;P1;durP2;ratioP2;P2;SDS_P1;SDS_P2;PMS_P1;PMS_P2;Temp;Humidity;BMP_temperature;BMP_pressure;BME280_temperature;BME280_humidity;BME280_pressure;Samples;Min_cycle;Max_cycle;Signal;HPM_P1;HPM_P2
2022/02/19 00:02:26;;;;;;;12.05;4.22;;;;;;;8.85;85.75;98228.33;1709033;82;25850;-79
2022/02/19 00:04:52;;;;;;;11.30;4.03;;;;;;;8.90;85.26;98232.42;1710870;82;25972;-79
2022/02/19 00:07:19;;;;;;;11.08;4.30;;;;;;;8.98;85.38;98230.73;1701554;82;26202;-79
2022/02/19 00:09:45;;;;;;;11.40;4.17;;;;;;;9.03;85.09;98230.03;1712663;82;25872;-80
2022/02/19 00:12:11;;;;;;;7.78;3.42;;;;;;;9.04;84.80;98211.64;1712384;82;27588;-80
2022/02/19 00:14:37;;;;;;;10.15;2.92;;;;;;;9.08;84.37;98214.95;1712931;82;25761;-79
2022/02/19 00:17:05;;;;;;;9.93;3.33;;;;;;;9.12;83.70;98224.11;1707821;82;25781;-79
2022/02/19 00:19:31;;;;;;;9.05;3.17;;;;;;;9.21;83.26;98227.23;1712399;82;25979;-79
2022/02/19 00:21:58;;;;;;;7.87;2.92;;;;;;;9.32;82.49;98217.84;1707731;82;26084;-79
2022/02/19 00:24:24;;;;;;;7.83;3.17;;;;;;;9.40;82.11;98222.02;1708001;82;27561;-80
2022/02/19 00:26:50;;;;;;;7.22;2.90;;;;;;;9.50;81.80;98230.73;1706132;82;25872;-80
2022/02/19 00:29:16;;;;;;;10.63;3.40;;;;;;;9.60;79.63;98243.78;1666440;85;25862;-80
2022/02/19 00:31:43;;;;;;;6.97;2.15;;;;;;;9.69;80.36;98301.69;1665576;85;25810;-79
2022/02/19 00:34:09;;;;;;;5.67;2.02;;;;;;;9.71;81.74;98329.02;1670743;85;25977;-80
2022/02/19 00:36:35;;;;;;;6.60;2.27;;;;;;;9.54;80.43;98333.47;1666451;85;27523;-80
2022/02/19 00:39:02;;;;;;;5.12;1.70;;;;;;;9.33;77.78;98318.33;1657982;85;25955;-78
2022/02/19 00:41:30;;;;;;;9.33;1.90;;;;;;;9.25;78.31;98324.03;1667807;84;25785;-80
2022/02/19 00:43:57;;;;;;;4.22;1.57;;;;;;;9.18;75.42;98319.31;1693162;84;26468;-79
2022/02/19 00:46:24;;;;;;;4.72;1.60;;;;;;;9.15;74.12;98321.66;1693710;84;26288;-81
2022/02/19 00:48:53;;;;;;;6.50;1.98;;;;;;;9.14;71.13;98340.05;1693836;84;27594;-80
2022/02/19 00:51:19;;;;;;;6.12;1.50;;;;;;;9.17;72.58;98332.92;1658651;85;25300;-79
2022/02/19 00:53:45;;;;;;;4.58;1.55;;;;;;;9.15;71.79;98321.66;1670292;84;25916;-79
2022/02/19 00:56:11;;;;;;;6.42;1.52;;;;;;;9.15;72.12;98323.78;1693362;84;25761;-79
2022/02/19 00:58:38;;;;;;;7.75;2.00;;;;;;;9.11;72.22;98333.30;1693025;83;25754;-79
2022/02/19 01:01:05;;;;;;;3.45;1.35;;;;;;;9.09;70.33;98332.72;1692362;84;27431;-79
2022/02/19 01:03:33;;;;;;;6.55;1.67;;;;;;;9.09;69.88;98338.06;1689491;84;25970;-80
2022/02/19 01:06:00;;;;;;;2.90;1.32;;;;;;;9.11;68.48;98341.31;1648972;85;25761;-80
2022/02/19 01:08:26;;;;;;;10.90;1.67;;;;;;;9.12;67.97;98348.30;1674321;84;26591;-80
2022/02/19 01:10:52;;;;;;;4.10;1.20;;;;;;;9.13;68.89;98349.91;1647783;85;25856;-80
2022/02/19 01:13:19;;;;;;;6.05;1.60;;;;;;;9.09;68.07;98343.41;1651476;85;28494;-79
2022/02/19 01:15:45;;;;;;;3.00;1.10;;;;;;;9.08;67.03;98359.67;1654719;85;25922;-80
2022/02/19 01:18:12;;;;;;;3.47;1.32;;;;;;;9.07;65.99;98374.05;1659171;84;25740;-81
2022/02/19 01:20:41;;;;;;;5.42;1.37;;;;;;;9.06;65.31;98376.45;1660419;85;26550;-80
2022/02/19 01:23:06;;;;;;;3.85;1.10;;;;;;;9.05;63.87;98376.14;1657431;85;26103;-79
2022/02/19 01:25:32;;;;;;;6.90;1.42;;;;;;;9.06;64.22;98376.45;1653526;85;27520;-80
2022/02/19 01:27:58;;;;;;;10.28;1.40;;;;;;;9.02;64.21;98382.78;1659398;84;26499;-79
2022/02/19 01:30:25;;;;;;;1.02;0.93;;;;;;;9.00;64.61;98374.70;1659524;85;25861;-79
2022/02/19 01:32:53;;;;;;;5.17;1.25;;;;;;;8.97;64.71;98385.83;1648888;85;26014;-80
2022/02/19 01:35:20;;;;;;;6.58;1.60;;;;;;;8.95;63.58;98373.23;1658447;85;25767;-79
2022/02/19 01:37:46;;;;;;;5.22;1.12;;;;;;;8.95;63.56;98391.41;1626997;85;27534;-80
2022/02/19 01:40:13;;;;;;;6.25;1.40;;;;;;;8.91;62.29;98387.58;1634594;85;25889;-79
2022/02/19 01:42:42;;;;;;;3.80;1.05;;;;;;;8.90;62.57;98399.28;1691211;84;25898;-79
2022/02/19 01:45:14;;;;;;;4.65;1.27;;;;;;;8.87;63.13;98405.10;1653024;85;26586;-79
2022/02/19 01:47:41;;;;;;;4.58;1.00;;;;;;;8.84;63.47;98413.55;1666659;85;26021;-80
2022/02/19 01:50:10;;;;;;;3.37;1.37;;;;;;;8.80;62.46;98403.05;1669218;84;27550;-79
2022/02/19 01:52:41;;;;;;;4.15;1.37;;;;;;;8.79;62.19;98411.30;1665336;85;25977;-79
2022/02/19 01:55:13;;;;;;;4.22;1.15;;;;;;;8.80;60.38;98415.57;1679407;82;25886;-80
2022/02/19 01:57:44;;;;;;;3.30;0.93;;;;;;;8.81;59.60;98414.00;1670784;84;26512;-79
2022/02/19 02:00:18;;;;;;;5.33;1.02;;;;;;;8.82;59.59;98427.66;1668744;84;26571;-80
2022/02/19 02:02:46;;;;;;;4.92;1.30;;;;;;;8.79;57.79;98420.63;1667733;84;27481;-80
2022/02/19 02:05:25;;;;;;;6.72;1.82;;;;;;;8.79;58.40;98436.10;1663703;83;26566;-80
2022/02/19 02:07:55;;;;;;;3.67;1.00;;;;;;;8.81;57.40;98438.57;1667982;85;25960;-79
2022/02/19 02:10:21;;;;;;;3.30;1.37;;;;;;;8.81;58.56;98440.70;1661332;85;26327;-79
2022/02/19 02:12:48;;;;;;;6.58;1.22;;;;;;;8.76;57.45;98456.59;1643438;85;26572;-80
2022/02/19 02:15:31;;;;;;;4.35;1.00;;;;;;;8.74;58.08;98459.19;1660534;85;27459;-79
2022/02/19 02:18:01;;;;;;;3.02;0.88;;;;;;;8.70;57.88;98463.36;1622956;84;25852;-79
2022/02/19 02:20:28;;;;;;;1.60;0.80;;;;;;;8.67;58.11;98464.62;1664739;84;25856;-79
2022/02/19 02:22:55;;;;;;;6.45;1.10;;;;;;;8.65;55.54;98479.22;1660409;84;25861;-79
2022/02/19 02:25:28;;;;;;;3.37;0.98;;;;;;;8.65;54.85;98479.22;1658507;85;26460;-80
2022/02/19 02:27:56;;;;;;;2.98;0.90;;;;;;;8.64;56.24;98484.28;1665890;84;27483;-81
2022/02/19 02:30:23;;;;;;;4.58;1.10;;;;;;;8.62;55.28;98477.81;1665664;84;26591;-81
2022/02/19 02:32:52;;;;;;;4.50;1.02;;;;;;;8.62;55.50;98495.70;1662372;85;25805;-79
2022/02/19 02:35:19;;;;;;;6.90;1.45;;;;;;;8.61;55.53;98506.07;1659334;85;25963;-79
2022/02/19 02:37:47;;;;;;;6.22;1.10;;;;;;;8.61;56.32;98514.08;1673176;84;25820;-80
2022/02/19 02:40:15;;;;;;;4.55;1.30;;;;;;;8.58;56.24;98507.33;1629068;85;27482;-79
2022/02/19 02:42:42;;;;;;;4.75;1.40;;;;;;;8.55;56.98;98514.47;1621122;85;26773;-80
2022/02/19 02:45:10;;;;;;;4.90;1.47;;;;;;;8.53;55.45;98511.21;1647882;86;26531;-80
2022/02/19 02:47:41;;;;;;;4.60;1.30;;;;;;;8.53;56.35;98513.88;1676427;84;25784;-80
2022/02/19 02:50:06;;;;;;;4.42;1.30;;;;;;;8.54;57.10;98517.65;1664560;84;25880;-79
2022/02/19 02:52:32;;;;;;;2.85;0.95;;;;;;;8.53;56.49;98517.88;1662484;85;27465;-81
2022/02/19 02:54:59;;;;;;;4.80;1.30;;;;;;;8.50;57.05;98512.98;1641688;85;25937;-79
2022/02/19 02:57:26;;;;;;;2.90;1.10;;;;;;;8.49;56.93;98526.01;1660964;85;26628;-79
2022/02/19 02:59:52;;;;;;;4.97;1.00;;;;;;;8.50;56.20;98526.32;1661307;84;26214;-79
2022/02/19 03:02:18;;;;;;;4.03;1.25;;;;;;;8.50;55.91;98522.31;1675754;84;26000;-79
2022/02/19 03:04:45;;;;;;;6.33;1.20;;;;;;;8.50;57.08;98516.98;1680026;84;27436;-79
2022/02/19 03:07:13;;;;;;;3.08;1.12;;;;;;;8.47;56.67;98524.08;1692702;84;25785;-79
2022/02/19 03:09:39;;;;;;;4.35;1.47;;;;;;;8.43;55.86;98523.73;1659977;85;25923;-79
2022/02/19 03:12:06;;;;;;;6.95;1.12;;;;;;;8.42;55.42;98523.95;1693170;83;25701;-78
2022/02/19 03:14:33;;;;;;;6.80;1.25;;;;;;;8.40;56.15;98523.37;1692996;84;26023;-80
2022/02/19 03:17:00;;;;;;;7.97;1.32;;;;;;;8.36;56.00;98525.65;1691912;84;27523;-80
2022/02/19 03:19:26;;;;;;;4.28;0.95;;;;;;;8.36;55.51;98522.98;1658847;85;25911;-81
2022/02/19 03:21:55;;;;;;;8.13;1.52;;;;;;;8.35;56.16;98518.70;1678157;84;26581;-80
2022/02/19 03:24:22;;;;;;;2.87;1.15;;;;;;;8.32;56.31;98531.13;1692811;84;25996;-79
2022/02/19 03:26:49;;;;;;;7.25;1.47;;;;;;;8.30;55.71;98539.06;1671651;83;25812;-80
2022/02/19 03:29:16;;;;;;;7.05;1.77;;;;;;;8.29;54.44;98540.94;1693360;83;27502;-82
2022/02/19 03:31:44;;;;;;;5.97;1.42;;;;;;;8.31;56.60;98547.38;1672376;83;25998;-79
2022/02/19 03:34:15;;;;;;;5.83;1.10;;;;;;;8.33;54.65;98562.63;1667226;85;26686;-81
2022/02/19 03:36:42;;;;;;;5.55;0.82;;;;;;;8.33;54.73;98565.30;1665891;84;26444;-80
2022/02/19 03:39:08;;;;;;;3.87;1.32;;;;;;;8.32;53.71;98543.14;1679886;84;25814;-79
2022/02/19 03:41:36;;;;;;;4.08;0.88;;;;;;;8.31;54.47;98588.72;1666818;84;27466;-79
2022/02/19 03:44:03;;;;;;;5.00;1.70;;;;;;;8.26;52.12;98592.55;1664801;85;25339;-79
2022/02/19 03:46:32;;;;;;;3.83;0.78;;;;;;;8.24;52.67;98598.08;1665757;84;26619;-79
2022/02/19 03:49:04;;;;;;;2.25;1.10;;;;;;;8.18;50.93;98618.97;1664872;84;26274;-79
2022/02/19 03:51:31;;;;;;;2.90;0.78;;;;;;;8.13;50.57;98617.47;1664733;85;26512;-80
2022/02/19 03:53:58;;;;;;;3.25;0.90;;;;;;;8.11;50.92;98624.05;1663607;85;27583;-79
2022/02/19 04:09:27;;;;;;;4.92;0.88;;;;;;;8.49;50.99;98635.41;1793624;79;25622;-80
2022/02/19 04:11:55;;;;;;;6.30;1.00;;;;;;;8.22;51.42;98636.67;1763625;80;25801;-80
2022/02/19 04:14:23;;;;;;;4.47;0.80;;;;;;;8.09;52.38;98634.94;1765363;80;27464;-81
2022/02/19 04:16:52;;;;;;;2.98;1.00;;;;;;;7.97;52.65;98637.20;1698901;83;25961;-79
2022/02/19 04:19:20;;;;;;;3.30;0.93;;;;;;;7.90;53.23;98648.42;1701769;83;25815;-79
2022/02/19 04:21:46;;;;;;;2.90;0.90;;;;;;;7.85;53.19;98652.28;1730591;81;25960;-80
2022/02/19 04:24:14;;;;;;;3.87;1.40;;;;;;;7.80;53.78;98648.92;1705951;83;25330;-79
2022/02/19 04:26:41;;;;;;;3.83;1.47;;;;;;;7.75;54.31;98662.07;1707257;83;28282;-80
2022/02/19 04:29:07;;;;;;;5.80;1.32;;;;;;;7.72;54.70;98657.16;1707888;83;25794;-79
2022/02/19 04:31:35;;;;;;;3.77;1.25;;;;;;;7.68;55.07;98662.63;1710532;83;25871;-79
2022/02/19 04:34:04;;;;;;;5.17;1.42;;;;;;;7.66;55.41;98655.36;1701936;83;25839;-79
2022/02/19 04:36:31;;;;;;;4.55;1.55;;;;;;;7.65;55.96;98664.41;1695002;83;25785;-79
2022/02/19 04:38:59;;;;;;;4.58;1.15;;;;;;;7.63;56.28;98662.47;1716446;82;27475;-79
2022/02/19 04:41:27;;;;;;;3.55;1.05;;;;;;;7.58;56.36;98667.11;1703885;83;26447;-80
2022/02/19 04:43:53;;;;;;;3.67;1.35;;;;;;;7.56;56.74;98655.03;1674051;83;25413;-78
2022/02/19 04:46:20;;;;;;;10.23;1.82;;;;;;;7.52;56.32;98653.83;1702134;83;26467;-79
2022/02/19 04:48:47;;;;;;;7.75;1.30;;;;;;;7.52;55.21;98648.50;1702719;83;25865;-80
2022/02/19 04:51:13;;;;;;;5.30;1.30;;;;;;;7.55;55.14;98648.88;1672973;85;27470;-79
2022/02/19 04:53:39;;;;;;;7.05;1.82;;;;;;;7.56;55.18;98667.02;1699792;83;25735;-81
2022/02/19 04:56:06;;;;;;;4.72;1.75;;;;;;;7.58;55.13;98660.95;1714637;83;25929;-79
2022/02/19 04:58:32;;;;;;;9.10;1.60;;;;;;;7.59;53.98;98659.94;1712250;83;25839;-79
2022/02/19 05:00:59;;;;;;;4.95;1.65;;;;;;;7.61;54.82;98679.19;1702428;83;25946;-79
2022/02/19 05:03:43;;;;;;;5.25;1.85;;;;;;;7.65;54.26;98688.38;1702887;83;28314;-80
2022/02/19 05:06:21;;;;;;;5.40;2.08;;;;;;;7.66;53.59;98683.34;1695188;83;25791;-80
2022/02/19 05:08:49;;;;;;;6.40;1.40;;;;;;;7.66;52.99;98670.02;1692480;83;25958;-79
2022/02/19 05:11:16;;;;;;;5.15;1.50;;;;;;;7.66;52.31;98670.02;1691417;83;25387;-80
2022/02/19 05:13:45;;;;;;;4.97;1.12;;;;;;;7.66;54.08;98680.67;1692024;83;25808;-80
2022/02/19 05:16:12;;;;;;;7.58;1.27;;;;;;;7.64;53.62;98681.41;1705546;83;27460;-79
2022/02/19 05:18:40;;;;;;;5.35;1.47;;;;;;;7.63;53.28;98674.46;1689437;83;25824;-80
2022/02/19 05:21:07;;;;;;;6.37;1.15;;;;;;;7.61;53.02;98664.00;1690576;84;26531;-80
2022/02/19 05:23:35;;;;;;;5.55;1.60;;;;;;;7.63;53.66;98675.80;1694301;84;26013;-79
2022/02/19 05:26:02;;;;;;;10.00;1.40;;;;;;;7.61;53.43;98669.86;1718403;82;25809;-79
2022/02/19 05:28:29;;;;;;;8.73;1.50;;;;;;;7.61;52.92;98680.52;1692254;84;28322;-81
2022/02/19 05:30:56;;;;;;;8.78;1.50;;;;;;;7.59;53.65;98688.70;1719168;82;26385;-80
2022/02/19 05:33:27;;;;;;;;;;;;;;;7.59;53.07;98693.24;1675674;83;26031;-80
2022/02/19 05:35:53;;;;;;;7.30;1.55;;;;;;;7.56;53.91;98702.47;1693406;84;25949;-80
2022/02/19 05:38:20;;;;;;;11.60;1.65;;;;;;;7.50;52.32;98703.33;1692492;84;25774;-80
2022/02/19 05:40:48;;;;;;;5.17;2.15;;;;;;;7.49;51.95;98693.69;1658419;83;27493;-80
2022/02/19 05:43:14;;;;;;;5.87;1.95;;;;;;;7.46;51.06;98706.09;1658227;86;25889;-81
2022/02/19 05:45:46;;;;;;;9.50;1.80;;;;;;;7.45;51.33;98707.64;1664686;85;25789;-79
2022/02/19 05:48:13;;;;;;;3.12;1.37;;;;;;;7.42;51.11;98700.89;1661893;85;25841;-78
2022/02/19 05:50:58;;;;;;;7.78;2.08;;;;;;;7.40;49.94;98704.28;1694150;83;25741;-80
2022/02/19 05:53:28;;;;;;;5.15;1.42;;;;;;;7.39;51.37;98723.97;1700577;83;27448;-80
2022/02/19 05:55:55;;;;;;;4.45;1.42;;;;;;;7.37;50.17;98713.22;1701152;83;25794;-80
2022/02/19 05:58:21;;;;;;;5.37;1.80;;;;;;;7.36;49.11;98712.91;1699368;83;26010;-80
2022/02/19 06:00:53;;;;;;;4.05;1.25;;;;;;;7.36;50.41;98725.72;1706658;83;26004;-79
2022/02/19 06:03:19;;;;;;;5.78;1.87;;;;;;;7.33;49.83;98731.48;1694310;83;25928;-80
2022/02/19 06:05:47;;;;;;;8.08;2.08;;;;;;;7.32;50.56;98727.17;1695900;83;27454;-80
2022/02/19 06:08:14;;;;;;;16.55;3.33;;;;;;;7.27;50.16;98742.16;1701720;83;25772;-81
2022/02/19 06:10:40;;;;;;;8.50;1.70;;;;;;;7.24;50.28;98747.89;1704042;83;25798;-81
2022/02/19 06:13:10;;;;;;;4.50;1.40;;;;;;;7.19;50.31;98736.53;1693132;83;25796;-80
2022/02/19 06:15:38;;;;;;;5.45;1.32;;;;;;;7.15;49.82;98754.47;1700214;83;25780;-80
2022/02/19 06:18:18;;;;;;;7.47;1.80;;;;;;;7.15;48.76;98747.81;1691806;83;27531;-79
2022/02/19 06:20:44;;;;;;;6.20;1.47;;;;;;;7.15;49.07;98741.16;1676022;84;26541;-79
2022/02/19 06:23:13;;;;;;;10.23;1.57;;;;;;;7.15;50.46;98743.81;1684822;83;25892;-79
2022/02/19 06:25:39;;;;;;;7.20;1.80;;;;;;;7.14;49.51;98740.87;1654194;85;26337;-79
2022/02/19 06:28:06;;;;;;;7.72;1.60;;;;;;;7.14;49.05;98739.53;1670848;85;25888;-79
2022/02/19 06:30:34;;;;;;;7.42;1.90;;;;;;;7.15;48.75;98753.14;1675124;84;27475;-79
2022/02/19 06:33:02;;;;;;;8.65;1.80;;;;;;;7.14;48.54;98733.70;1697351;83;26070;-79
2022/02/19 06:35:30;;;;;;;3.98;1.55;;;;;;;7.14;48.77;98738.20;1701137;83;26109;-81
2022/02/19 06:37:58;;;;;;;5.08;1.60;;;;;;;7.13;48.81;98742.70;1697281;83;25720;-79
2022/02/19 06:40:25;;;;;;;10.00;1.90;;;;;;;7.14;49.61;98741.69;1694693;83;25940;-80
2022/02/19 06:42:51;;;;;;;7.00;1.45;;;;;;;7.15;49.03;98733.17;1716095;82;27440;-79
2022/02/19 06:45:22;;;;;;;;;;;;;;;7.14;49.34;98736.88;1679150;83;26022;-79
2022/02/19 06:47:48;;;;;;;5.08;1.52;;;;;;;7.13;48.94;98738.71;1689621;83;25783;-78
2022/02/19 06:50:16;;;;;;;7.78;1.75;;;;;;;7.11;49.30;98740.77;1673242;84;26608;-79
2022/02/19 06:52:43;;;;;;;7.10;1.20;;;;;;;7.12;48.23;98737.06;1680401;84;25818;-79
2022/02/19 06:55:10;;;;;;;10.25;2.42;;;;;;;7.15;47.23;98726.52;1679428;84;28282;-79
2022/02/19 06:57:39;;;;;;;5.87;1.45;;;;;;;7.18;47.66;98725.59;1677258;84;25778;-79
2022/02/19 07:00:08;;;;;;;8.08;2.22;;;;;;;7.20;48.45;98734.19;1674508;84;26092;-79
2022/02/19 07:02:37;;;;;;;8.60;2.17;;;;;;;7.21;48.00;98721.67;1675250;83;26014;-79
2022/02/19 07:05:05;;;;;;;5.90;1.85;;;;;;;7.22;48.38;98714.83;1678088;84;26578;-79
2022/02/19 07:07:50;;;;;;;9.13;1.75;;;;;;;7.23;47.52;98728.97;1686823;83;27491;-79
2022/02/19 07:10:16;;;;;;;6.62;1.27;;;;;;;7.25;47.55;98728.23;1671697;83;25873;-80
2022/02/19 07:12:44;;;;;;;4.47;1.60;;;;;;;7.25;46.85;98729.57;1677447;83;25788;-76
2022/02/19 07:15:12;;;;;;;5.37;1.75;;;;;;;7.28;47.71;98739.78;1680820;84;25801;-79
2022/02/19 07:17:49;;;;;;;7.95;1.42;;;;;;;7.30;46.67;98737.72;1661054;85;26497;-79
2022/02/19 07:20:16;;;;;;;7.22;1.77;;;;;;;7.32;46.79;98726.34;1681281;83;27512;-80
2022/02/19 07:22:43;;;;;;;6.80;1.55;;;;;;;7.32;47.84;98738.33;1678696;84;25834;-78
2022/02/19 07:25:10;;;;;;;10.68;2.02;;;;;;;7.33;48.20;98746.13;1684306;83;26350;-79
2022/02/19 07:27:39;;;;;;;8.50;1.82;;;;;;;7.32;47.90;98756.47;1686720;83;25861;-79
2022/02/19 07:30:11;;;;;;;6.55;1.57;;;;;;;7.32;47.85;98759.63;1686475;83;25891;-78
2022/02/19 07:32:38;;;;;;;6.83;1.80;;;;;;;7.31;47.86;98750.85;1677757;83;26998;-80
2022/02/19 07:47:25;;;;;;;12.25;2.35;;;;;;;7.92;46.68;98773.81;1805095;77;25722;-79
2022/02/19 08:01:40;;;;;;;5.58;1.65;;;;;;;8.07;46.70;98780.17;1790606;79;25746;-80
2022/02/19 08:04:07;;;;;;;4.60;1.37;;;;;;;7.84;46.91;98781.23;1758743;80;25840;-80
2022/02/19 08:06:34;;;;;;;7.87;2.22;;;;;;;7.76;47.17;98797.77;1758476;80;27460;-80
2022/02/19 08:09:00;;;;;;;4.53;1.25;;;;;;;7.74;47.41;98798.50;1756364;80;25768;-79
2022/02/19 08:11:28;;;;;;;3.30;1.30;;;;;;;7.74;48.03;98819.81;1758721;80;25819;-80
2022/02/19 08:13:55;;;;;;;5.12;1.55;;;;;;;7.74;47.52;98834.48;1765269;80;26142;-80
2022/02/19 08:16:22;;;;;;;4.30;1.47;;;;;;;7.78;47.93;98841.55;1760314;80;25764;-79
2022/02/19 17:17:31;;;;;;;99.28;53.58;;;;;;;6.31;60.98;99918.34;1747156;80;25766;-80
2022/02/19 17:19:58;;;;;;;10.03;6.20;;;;;;;6.17;61.33;99936.69;1718011;83;26281;-79
2022/02/19 17:22:24;;;;;;;10.88;4.03;;;;;;;6.13;61.53;99936.72;1712387;83;28266;-80
2022/02/19 17:24:50;;;;;;;10.65;3.90;;;;;;;6.08;61.51;99932.41;1687853;83;26559;-79
2022/02/19 17:27:16;;;;;;;10.50;2.95;;;;;;;6.03;61.82;99937.41;1705443;83;25860;-79
2022/02/19 17:29:43;;;;;;;8.83;4.42;;;;;;;5.97;61.79;99938.61;1698756;83;25966;-80
2022/02/19 17:32:10;;;;;;;8.35;3.58;;;;;;;5.95;61.88;99952.08;1693649;81;25588;-80
2022/02/19 17:34:41;;;;;;;7.83;3.80;;;;;;;5.94;61.84;99950.93;1711900;83;27565;-78
2022/02/19 17:37:08;;;;;;;;;;;;;;;5.93;62.02;99964.72;1720983;83;25960;-80
2022/02/19 17:39:34;;;;;;;8.50;4.50;;;;;;;5.91;62.12;99964.06;1720345;83;25733;-80
2022/02/19 17:42:01;;;;;;;6.28;2.98;;;;;;;5.92;62.42;99992.81;1719804;81;25832;-79
2022/02/19 17:44:27;;;;;;;2.15;1.37;;;;;;;5.93;62.57;100024.52;1713761;82;25743;-81
2022/02/19 17:46:53;;;;;;;0.82;0.57;;;;;;;5.91;65.69;100065.55;1713528;83;28273;-79
2022/02/19 17:49:19;;;;;;;0.20;0.20;;;;;;;5.17;69.50;100110.41;1719585;83;25711;-79
2022/02/19 17:51:46;;;;;;;2.37;1.12;;;;;;;4.42;71.29;100094.13;1708926;83;26562;-79
2022/02/19 17:54:12;;;;;;;2.80;0.85;;;;;;;4.01;72.22;100080.33;1692334;83;25939;-79
2022/02/19 18:08:31;;;;;;;3.52;1.82;;;;;;;4.55;73.84;100092.34;1755497;79;26449;-79
2022/02/19 18:10:57;;;;;;;3.98;0.90;;;;;;;4.31;74.68;100097.05;1726890;81;26526;-78
2022/02/19 18:13:23;;;;;;;2.33;1.17;;;;;;;4.18;76.39;100078.59;1719799;83;27632;-79
2022/02/19 18:15:50;;;;;;;8.13;1.22;;;;;;;4.06;76.52;100100.58;1723164;82;25936;-79
2022/02/19 18:18:16;;;;;;;4.03;1.12;;;;;;;4.02;77.15;100101.84;1733517;82;25877;-78
2022/02/19 18:20:42;;;;;;;3.33;1.00;;;;;;;3.98;78.18;100097.85;1721868;81;26582;-79
2022/02/19 18:23:08;;;;;;;2.42;1.00;;;;;;;3.90;78.01;100109.25;1726136;81;26005;-79
2022/02/19 18:25:35;;;;;;;2.02;1.02;;;;;;;3.85;78.13;100109.36;1714872;81;27466;-78
2022/02/19 18:28:03;;;;;;;5.25;3.35;;;;;;;3.84;78.76;100103.25;1720950;81;25999;-79
2022/02/19 18:30:31;;;;;;;1.90;1.62;;;;;;;3.87;78.66;100106.90;1713284;82;26018;-80
2022/02/19 18:32:58;;;;;;;1.27;0.70;;;;;;;3.89;79.82;100117.36;1727252;81;25829;-79
2022/02/19 18:35:26;;;;;;;2.00;1.12;;;;;;;3.90;78.69;100132.25;1723452;82;25765;-79
2022/02/19 18:37:53;;;;;;;3.75;0.80;;;;;;;3.84;80.17;100146.97;1724313;80;27534;-79
2022/02/19 18:40:20;;;;;;;2.62;0.72;;;;;;;3.73;80.58;100159.13;1711310;83;25830;-79
2022/02/19 18:42:46;;;;;;;1.67;1.07;;;;;;;3.67;81.44;100150.97;1703695;83;25275;-79
2022/02/19 18:45:13;;;;;;;4.97;0.88;;;;;;;3.57;81.21;100154.20;1698611;84;25785;-80
2022/02/19 18:47:40;;;;;;;2.40;1.17;;;;;;;3.51;82.72;100159.59;1698042;83;25930;-79
2022/02/19 18:50:07;;;;;;;3.25;2.17;;;;;;;3.48;82.42;100156.43;1698587;84;27638;-79
2022/02/19 18:52:33;;;;;;;5.58;4.85;;;;;;;3.47;81.75;100145.00;1698310;84;25997;-80
2022/02/19 18:55:00;;;;;;;12.85;11.65;;;;;;;3.50;82.25;100149.17;1698420;84;25812;-79
2022/02/19 18:57:26;;;;;;;7.28;5.90;;;;;;;3.52;82.25;100152.49;1698099;82;26488;-79
2022/02/19 18:59:53;;;;;;;21.00;16.87;;;;;;;3.54;81.75;100153.17;1698324;84;25728;-79
2022/02/19 19:02:20;;;;;;;17.30;13.45;;;;;;;3.59;82.22;100150.39;1698065;84;28321;-79
2022/02/19 19:04:46;;;;;;;14.00;9.98;;;;;;;3.60;81.86;100156.52;1698118;84;25751;-79
2022/02/19 19:07:13;;;;;;;19.70;14.38;;;;;;;3.61;81.52;100156.39;1699071;82;25710;-80
2022/02/19 19:09:39;;;;;;;8.88;3.85;;;;;;;3.66;81.72;100166.02;1701979;84;25865;-79
2022/02/19 19:12:06;;;;;;;7.28;3.55;;;;;;;3.66;82.18;100164.69;1701276;84;25791;-79
2022/02/19 19:14:32;;;;;;;11.38;8.38;;;;;;;3.66;81.86;100162.53;1701304;84;27454;-78
2022/02/19 19:16:58;;;;;;;8.30;5.62;;;;;;;3.66;81.70;100163.37;1690820;83;26495;-79
2022/02/19 19:19:25;;;;;;;22.22;10.70;;;;;;;3.71;81.88;100170.86;1687859;84;25927;-79
2022/02/19 19:21:51;;;;;;;23.25;11.85;;;;;;;3.74;81.62;100171.89;1690058;84;25798;-80
2022/02/19 19:24:18;;;;;;;18.20;10.10;;;;;;;3.79;81.87;100173.56;1684227;84;25911;-79
2022/02/19 19:26:44;;;;;;;16.40;8.33;;;;;;;3.83;81.64;100176.23;1703820;81;27454;-79
2022/02/19 19:29:10;;;;;;;22.75;12.80;;;;;;;3.87;81.53;100182.92;1692313;84;26200;-79
2022/02/19 19:31:37;;;;;;;18.20;9.33;;;;;;;3.91;81.63;100182.95;1688445;84;25757;-78
2022/02/19 19:34:03;;;;;;;23.05;13.22;;;;;;;3.94;81.49;100189.25;1687770;83;26021;-79
2022/02/19 19:36:36;;;;;;;17.42;9.73;;;;;;;3.97;81.53;100180.16;1690849;81;26563;-80
2022/02/19 19:39:00;;;;;;;13.72;7.22;;;;;;;3.97;81.56;100190.28;1690302;84;28302;-79
2022/02/19 19:41:27;;;;;;;16.32;10.05;;;;;;;3.97;81.43;100181.00;1688080;84;25818;-79
2022/02/19 19:43:53;;;;;;;17.85;10.40;;;;;;;4.01;81.44;100185.48;1689660;84;25842;-79
2022/02/19 19:46:20;;;;;;;16.50;7.03;;;;;;;4.01;81.33;100187.66;1694282;84;25745;-79
2022/02/19 19:48:47;;;;;;;17.82;7.50;;;;;;;4.04;81.21;100185.19;1704967;81;25831;-79
2022/02/19 19:51:13;;;;;;;15.25;7.95;;;;;;;4.08;81.10;100187.87;1704781;83;28277;-79
2022/02/19 19:53:39;;;;;;;17.05;7.75;;;;;;;4.11;80.83;100191.52;1699627;81;26198;-79
2022/02/19 19:56:08;;;;;;;21.48;9.03;;;;;;;4.12;80.70;100188.73;1705403;83;25848;-79
2022/02/19 19:58:34;;;;;;;19.50;8.35;;;;;;;4.15;80.66;100192.89;1694831;81;25777;-78
2022/02/19 20:01:01;;;;;;;17.50;8.43;;;;;;;4.17;80.54;100190.40;1700899;81;26256;-79
2022/02/19 20:03:29;;;;;;;18.65;7.75;;;;;;;4.20;80.29;100194.08;1693288;83;27451;-79
2022/02/19 20:05:56;;;;;;;26.15;12.82;;;;;;;4.24;80.07;100190.61;1689447;84;26001;-79
2022/02/19 20:08:22;;;;;;;17.05;10.40;;;;;;;4.25;79.90;100197.59;1704813;82;25889;-78
2022/02/19 20:10:48;;;;;;;22.20;7.12;;;;;;;4.26;79.49;100198.75;1726860;81;25869;-78
2022/02/19 20:13:15;;;;;;;17.65;8.05;;;;;;;4.32;79.13;100210.56;1715593;82;25740;-80
2022/02/19 20:15:42;;;;;;;17.23;7.55;;;;;;;4.35;78.94;100208.42;1720213;82;27553;-79
2022/02/19 20:18:09;;;;;;;16.57;6.70;;;;;;;4.39;78.83;100210.26;1713417;82;25966;-80
2022/02/19 20:20:36;;;;;;;13.78;5.80;;;;;;;4.42;78.08;100212.61;1722569;81;25811;-79
2022/02/19 20:23:04;;;;;;;15.48;5.45;;;;;;;4.45;77.78;100207.81;1708784;81;26104;-79
2022/02/19 20:25:30;;;;;;;15.28;6.65;;;;;;;4.50;77.24;100210.00;1703222;81;26059;-78
2022/02/19 20:27:56;;;;;;;14.60;6.30;;;;;;;4.52;77.01;100200.90;1722144;80;27473;-78
2022/02/19 20:30:23;;;;;;;16.37;4.72;;;;;;;4.56;76.13;100206.70;1723406;81;25877;-79
2022/02/19 20:32:49;;;;;;;12.63;5.30;;;;;;;4.57;75.88;100202.59;1711655;82;26210;-79
2022/02/19 20:35:15;;;;;;;13.53;5.28;;;;;;;4.59;75.14;100200.61;1716231;82;25860;-78
2022/02/19 20:37:41;;;;;;;14.40;4.53;;;;;;;4.61;73.95;100189.34;1726252;81;25909;-78
2022/02/19 20:40:12;;;;;;;15.40;5.35;;;;;;;4.63;73.40;100197.98;1720111;82;28688;-78
2022/02/19 20:42:41;;;;;;;17.53;5.30;;;;;;;4.66;73.07;100194.98;1726645;82;25856;-79
2022/02/19 20:45:10;;;;;;;16.43;6.50;;;;;;;4.69;73.45;100197.34;1713759;82;25767;-78
2022/02/19 20:47:36;;;;;;;15.63;7.12;;;;;;;4.71;72.73;100205.12;1702898;83;25845;-78
2022/02/19 20:50:05;;;;;;;13.03;5.37;;;;;;;4.75;72.31;100202.49;1714617;83;25839;-79
2022/02/19 20:52:31;;;;;;;13.05;5.67;;;;;;;4.75;72.36;100208.31;1723184;81;27443;-79
2022/02/19 20:54:58;;;;;;;12.80;4.72;;;;;;;4.77;71.51;100211.64;1725971;81;25793;-78
2022/02/19 20:57:24;;;;;;;9.43;4.95;;;;;;;4.79;71.12;100218.42;1724622;81;26118;-79
2022/02/19 20:59:51;;;;;;;15.45;6.85;;;;;;;4.80;71.00;100220.10;1716561;81;25851;-79
2022/02/19 21:02:18;;;;;;;15.93;6.65;;;;;;;4.80;70.50;100228.06;1723331;81;25862;-79
2022/02/19 21:04:49;;;;;;;15.10;6.25;;;;;;;4.79;70.30;100227.71;1726199;81;27473;-78
2022/02/19 21:07:17;;;;;;;10.90;5.33;;;;;;;4.78;70.09;100231.38;1721444;82;26499;-79
2022/02/19 21:09:44;;;;;;;12.53;4.53;;;;;;;4.78;69.77;100231.38;1716361;82;25922;-79
2022/02/19 21:12:11;;;;;;;12.10;4.70;;;;;;;4.79;70.16;100237.00;1717084;82;26011;-79
2022/02/19 21:14:38;;;;;;;11.38;4.67;;;;;;;4.81;69.73;100236.86;1722052;81;25726;-80
2022/02/19 21:17:04;;;;;;;13.83;5.03;;;;;;;4.83;69.62;100231.74;1722288;81;28313;-79
2022/02/19 21:19:30;;;;;;;12.53;4.85;;;;;;;4.86;70.08;100230.08;1717993;81;25265;-79
2022/02/19 21:21:56;;;;;;;10.20;4.42;;;;;;;4.87;69.81;100227.77;1738249;81;25767;-78
2022/02/19 21:24:22;;;;;;;13.18;5.33;;;;;;;4.89;69.84;100230.26;1711708;82;25917;-78
2022/02/19 21:26:49;;;;;;;8.98;4.00;;;;;;;4.88;69.57;100225.44;1720922;81;25824;-78